Ashford, CT

12:47 AM EDT on September 22, 2014 (GMT -0400)
Chester | Change Station
CLOSE
Current Station
Airport
Location: Chester,
Elevation: 413 ft
Nearby Weather Stations
Active Advisory: Special Statement

Elev 413 ft 41.38 °N, 72.51 °W | Updated 12 minutes ago

Overcast
Overcast
68 °F
Feels Like 68 °F
N
7
Wind Variable Wind from WSW

Today
High -- | Low -- °F
--% Chance of Precip.
Yesterday
High -- | Low -- °F
Precip. -- in
6:36 AM 6:46 PM
Waning Crescent, 4% visible
Pressure 29.62 in
Visibility 3.0 miles
Clouds Overcast 100 ft
Dew Point 68 °F
Humidity 100%
Rainfall 0.00 in
Snow Depth Not available.
UV 0 out of 12
Pollen .70 out of 12
Ozone Good
Flu Activity Not available.
METAR KSNC 220435Z AUTO 24006KT 3SM BR OVC001 20/20 A2962 RMK AO2

More Conditions Fewer Conditions

Pressure 29.62 in
Visibility 3.0 miles
Clouds Overcast 100 ft
Dew Point 68 °F
Humidity 100%
Rainfall 0.00 in
Snow Depth Not available.
UV 0 out of 12
Pollen .70 out of 12
Ozone Good
Flu Activity Not available.
METAR KSNC 220435Z AUTO 24006KT 3SM BR OVC001 20/20 A2962 RMK AO2

More Conditions Fewer Conditions

10-Day Weather Forecast

Almanac

Astronomy

Sep. 22, 2014 Rise Set
Actual Time 6:36 AM EDT 6:46 PM EDT
Civil Twilight 6:08 AM EDT 7:13 PM EDT
Nautical Twilight 5:35 AM EDT 7:46 PM EDT
Astronomical Twilight 5:02 AM EDT 8:19 PM EDT
Moon 5:01 AM EDT 5:52 PM EDT
Length of Visible Light 13h 05m
Length of Day
12h 09m
Tomorrow will be 2m 46s shorter.
Waning Crescent, 4% of the Moon is Illuminated
Today
Waning Crescent
Sep 24
New
Oct 1
First Quarter
Oct 8
Full
Oct 15
Last Quarter

Today's Extremes

State Highs State Lows

Community

WunderPhotos

Upload Photos

1,755,391 photos uploaded!

Nearby

Air Quality

  Air Quality AQ Index Pollutant
Yesterday Good
OZONE
Current Good
OZONE
Sunday Good
OZONE
Sunday Good
PM2.5
Monday Good
OZONE
Monday Good
PM2.5

Snow Depth

Station Depth Elevation
No new snow has been reported.

Earthquake Activity

City Distance Mag. Time & Date
No recent earthquake activity has been reported nearby.
Minimum magnitude displayed is 2.5.

Coastal Water Temperatures

Place Temperature
New London, CT 68.0 °F
Newport, RI 66.9 °F
Quonset Point, RI 68.0 °F
Conimicut Light, RI 69.1 °F
Providence, RI 69.1 °F

Nearby Weather Stations